createdAt,value
2023-04-27T00:00:22.153Z,5.69
2023-04-27T00:02:50.009Z,5.61
2023-04-27T00:05:18.280Z,5.53
2023-04-27T00:07:46.307Z,5.46
2023-04-27T00:10:13.936Z,5.40
2023-04-27T00:12:43.024Z,5.34
2023-04-27T00:15:10.695Z,5.29
2023-04-27T00:17:38.696Z,5.22
2023-04-27T00:20:08.945Z,5.16
2023-04-27T00:22:36.663Z,5.10
2023-04-27T00:25:04.651Z,5.05
2023-04-27T00:27:32.261Z,4.96
2023-04-27T00:30:01.094Z,4.87
2023-04-27T00:32:28.702Z,4.78
2023-04-27T00:34:56.365Z,4.69
2023-04-27T00:37:24.368Z,4.59
2023-04-27T00:39:51.947Z,4.49
2023-04-27T00:42:19.937Z,4.43
2023-04-27T00:44:47.561Z,4.37
2023-04-27T00:47:15.159Z,4.31
2023-04-27T00:49:43.119Z,4.27
2023-04-27T00:52:10.753Z,4.24
2023-04-27T00:54:38.635Z,4.18
2023-04-27T00:57:06.663Z,4.17
2023-04-27T00:59:34.252Z,4.11
2023-04-27T01:02:02.235Z,4.13
2023-04-27T01:04:30.032Z,4.10
2023-04-27T01:06:57.990Z,4.08
2023-04-27T01:09:26.008Z,4.06
2023-04-27T01:11:53.622Z,4.05
2023-04-27T01:14:22.452Z,4.02
2023-04-27T01:16:50.801Z,4.00
2023-04-27T01:19:18.532Z,3.98
2023-04-27T01:21:46.637Z,3.95
2023-04-27T01:24:14.253Z,3.92
2023-04-27T01:26:42.230Z,3.86
2023-04-27T01:29:09.840Z,3.79
2023-04-27T01:31:37.501Z,3.72
2023-04-27T01:34:05.107Z,3.67
2023-04-27T01:36:33.069Z,3.62
2023-04-27T01:39:01.027Z,3.55
2023-04-27T01:41:28.657Z,3.50
2023-04-27T01:43:56.271Z,3.49
2023-04-27T01:46:23.862Z,3.47
2023-04-27T01:48:51.543Z,3.45
2023-04-27T01:51:19.575Z,3.41
2023-04-27T01:53:47.150Z,3.38
2023-04-27T01:56:14.791Z,3.32
2023-04-27T01:58:42.716Z,3.24
2023-04-27T02:01:10.407Z,3.18
2023-04-27T02:03:38.529Z,3.09
2023-04-27T02:06:06.250Z,3.03
2023-04-27T02:08:33.844Z,2.97
2023-04-27T02:11:01.484Z,2.92
2023-04-27T02:13:29.034Z,2.89
2023-04-27T02:15:57.681Z,2.88
2023-04-27T02:18:25.579Z,2.87
2023-04-27T02:20:53.124Z,2.86
2023-04-27T02:23:20.678Z,2.87
2023-04-27T02:25:48.293Z,2.87
2023-04-27T02:28:16.193Z,2.86
2023-04-27T02:30:44.720Z,2.81
2023-04-27T02:33:12.642Z,2.74
2023-04-27T02:35:40.185Z,2.63
2023-04-27T02:38:07.740Z,2.56
2023-04-27T02:40:36.017Z,2.53
2023-04-27T02:43:04.056Z,2.47
2023-04-27T02:45:31.616Z,2.47
2023-04-27T02:47:59.348Z,2.44
2023-04-27T02:50:27.022Z,2.43
2023-04-27T02:52:55.736Z,2.42
2023-04-27T02:55:23.355Z,2.41
2023-04-27T02:57:51.553Z,2.38
2023-04-27T03:00:19.924Z,2.33
2023-04-27T03:02:48.005Z,2.28
2023-04-27T03:05:16.374Z,2.23
2023-04-27T03:07:43.940Z,2.18
2023-04-27T03:10:11.619Z,2.14
2023-04-27T03:12:39.185Z,2.12
2023-04-27T03:15:06.798Z,2.11
2023-04-27T03:17:34.750Z,2.11
2023-04-27T03:20:02.414Z,2.10
2023-04-27T03:22:30.288Z,2.10
2023-04-27T03:24:59.410Z,2.10
2023-04-27T03:27:26.976Z,2.12
2023-04-27T03:29:55.215Z,2.12
2023-04-27T03:32:22.802Z,2.10
2023-04-27T03:34:50.491Z,2.06
2023-04-27T03:37:18.036Z,2.02
2023-04-27T03:39:45.839Z,1.99
2023-04-27T03:42:13.857Z,1.97
2023-04-27T03:44:41.417Z,1.95
2023-04-27T03:47:10.591Z,1.95
2023-04-27T03:49:38.204Z,1.95
2023-04-27T03:52:05.988Z,1.94
2023-04-27T03:54:33.646Z,1.96
2023-04-27T03:57:02.669Z,1.97
2023-04-27T03:59:30.317Z,1.98
2023-04-27T04:02:00.938Z,1.97
2023-04-27T04:04:29.112Z,1.97
2023-04-27T04:06:57.227Z,1.97
2023-04-27T04:09:25.087Z,1.94
2023-04-27T04:11:52.713Z,1.91
2023-04-27T04:14:20.354Z,1.86
2023-04-27T04:16:47.966Z,1.80
2023-04-27T04:19:16.233Z,1.77
2023-04-27T04:21:44.039Z,1.75
2023-04-27T04:24:11.683Z,1.74
2023-04-27T04:26:39.835Z,1.75
2023-04-27T04:29:09.520Z,1.77
2023-04-27T04:31:39.058Z,1.76
2023-04-27T04:34:07.027Z,1.78
2023-04-27T04:36:36.258Z,1.81
2023-04-27T04:39:05.876Z,1.87
2023-04-27T04:41:33.592Z,1.92
2023-04-27T04:44:01.566Z,1.96
2023-04-27T04:46:29.259Z,1.97
2023-04-27T04:48:57.160Z,2.02
2023-04-27T04:51:24.755Z,2.06
2023-04-27T04:53:52.433Z,2.11
2023-04-27T04:56:20.369Z,2.19
2023-04-27T04:58:48.049Z,2.25
2023-04-27T05:01:15.942Z,2.33
2023-04-27T05:03:43.787Z,2.38
2023-04-27T05:06:11.536Z,2.45
2023-04-27T05:08:39.514Z,2.52
2023-04-27T05:11:07.137Z,2.61
2023-04-27T05:13:35.746Z,2.69
2023-04-27T05:16:03.788Z,2.77
2023-04-27T05:18:31.465Z,2.86
2023-04-27T05:20:59.284Z,2.98
2023-04-27T05:23:26.936Z,3.12
2023-04-27T05:25:54.568Z,3.26
2023-04-27T05:28:22.165Z,3.36
2023-04-27T05:30:49.855Z,3.47
2023-04-27T05:33:17.830Z,3.58
2023-04-27T05:35:45.491Z,3.70
2023-04-27T05:38:17.593Z,3.85
2023-04-27T05:40:45.274Z,4.04
2023-04-27T05:43:12.911Z,4.22
2023-04-27T05:45:41.109Z,4.38
2023-04-27T05:48:08.789Z,4.51
2023-04-27T05:50:36.412Z,4.65
2023-04-27T05:53:05.843Z,4.81
2023-04-27T05:55:33.499Z,4.96
2023-04-27T05:58:08.624Z,5.09
2023-04-27T06:00:37.358Z,5.26
2023-04-27T06:03:05.231Z,5.43
2023-04-27T06:05:34.457Z,5.61
2023-04-27T06:08:02.498Z,5.80
2023-04-27T06:10:30.399Z,5.99
2023-04-27T06:12:58.023Z,6.16
2023-04-27T06:15:25.775Z,6.35
2023-04-27T06:17:53.383Z,6.51
2023-04-27T06:20:21.410Z,6.69
2023-04-27T06:22:49.111Z,6.85
2023-04-27T06:25:17.330Z,6.99
2023-04-27T06:27:44.952Z,7.09
2023-04-27T06:30:12.602Z,7.21
2023-04-27T06:32:40.642Z,7.33
2023-04-27T06:35:08.325Z,7.46
2023-04-27T06:37:36.537Z,7.56
2023-04-27T06:40:05.155Z,7.69
2023-04-27T06:42:32.809Z,7.79
2023-04-27T06:45:00.472Z,7.92
2023-04-27T06:47:28.151Z,8.05
2023-04-27T06:49:55.822Z,8.15
2023-04-27T06:52:23.496Z,8.25
2023-04-27T06:54:51.221Z,8.35
2023-04-27T06:57:18.957Z,8.41
2023-04-27T06:59:46.860Z,8.48
2023-04-27T07:02:15.616Z,8.54
2023-04-27T07:04:43.594Z,8.65
2023-04-27T07:07:11.462Z,8.77
2023-04-27T07:09:39.736Z,8.84
2023-04-27T07:12:07.413Z,8.90
2023-04-27T07:14:35.248Z,8.97
2023-04-27T07:17:02.905Z,9.04
2023-04-27T07:19:30.657Z,9.11
2023-04-27T07:21:58.460Z,9.15
2023-04-27T07:24:26.155Z,9.23
2023-04-27T07:26:54.338Z,9.31
2023-04-27T07:29:27.156Z,9.39
2023-04-27T07:31:56.005Z,9.48
2023-04-27T07:34:24.444Z,9.60
2023-04-27T07:36:52.302Z,9.74
2023-04-27T07:39:20.970Z,9.86
2023-04-27T07:41:50.348Z,9.99
2023-04-27T07:44:18.524Z,10.08
2023-04-27T07:46:47.782Z,10.18
2023-04-27T07:49:15.983Z,10.25
2023-04-27T07:51:44.696Z,10.31
2023-04-27T07:54:12.540Z,10.36
2023-04-27T07:56:40.501Z,10.42
2023-04-27T07:59:08.838Z,10.49
2023-04-27T08:01:36.602Z,10.62
2023-04-27T08:04:05.104Z,10.73
2023-04-27T08:06:34.216Z,10.84
2023-04-27T08:09:04.492Z,10.91
2023-04-27T08:11:32.644Z,10.94
2023-04-27T08:14:00.368Z,10.97
2023-04-27T08:16:28.354Z,11.04
2023-04-27T08:18:56.879Z,11.11
2023-04-27T08:21:25.813Z,11.15
2023-04-27T08:23:54.376Z,11.20
2023-04-27T08:26:24.366Z,11.27
2023-04-27T08:28:54.476Z,11.41
2023-04-27T08:31:22.448Z,11.52
2023-04-27T08:33:50.553Z,11.60
2023-04-27T08:36:18.857Z,11.68
2023-04-27T08:38:47.140Z,11.76
2023-04-27T08:41:21.519Z,11.86
2023-04-27T08:43:51.174Z,12.01
2023-04-27T08:46:19.316Z,12.15
2023-04-27T08:48:47.294Z,12.26
2023-04-27T08:51:15.567Z,12.35
2023-04-27T08:53:43.334Z,12.46
2023-04-27T08:56:11.102Z,12.52
2023-04-27T08:58:39.997Z,12.58
2023-04-27T09:01:08.390Z,12.65
2023-04-27T09:03:36.967Z,12.76
2023-04-27T09:06:05.978Z,12.91
2023-04-27T09:08:34.093Z,13.03
2023-04-27T09:11:02.592Z,13.15
2023-04-27T09:13:30.480Z,13.29
2023-04-27T09:15:58.493Z,13.42
2023-04-27T09:18:26.905Z,13.55
2023-04-27T09:20:54.681Z,13.69
2023-04-27T09:23:23.020Z,13.90
2023-04-27T09:25:50.854Z,14.08
2023-04-27T09:28:18.658Z,14.28
2023-04-27T09:30:46.479Z,14.49
2023-04-27T09:33:16.045Z,14.71
2023-04-27T09:35:44.368Z,14.98
2023-04-27T09:38:14.483Z,15.26
2023-04-27T09:40:43.308Z,15.65
2023-04-27T09:43:11.148Z,15.97
2023-04-27T09:45:38.923Z,16.35
2023-04-27T09:48:07.126Z,16.68
2023-04-27T09:50:36.735Z,16.97
2023-04-27T09:53:05.903Z,17.38
2023-04-27T09:55:34.022Z,17.70
2023-04-27T09:58:02.063Z,17.92
2023-04-27T10:00:30.382Z,18.12
2023-04-27T10:02:58.647Z,18.30
2023-04-27T10:05:27.090Z,18.51
2023-04-27T10:07:54.955Z,18.88
2023-04-27T10:10:22.890Z,19.27
2023-04-27T10:12:51.708Z,19.62
2023-04-27T10:15:19.883Z,19.85
2023-04-27T10:17:49.379Z,20.10
2023-04-27T10:20:18.017Z,20.40
2023-04-27T10:22:46.179Z,20.79
2023-04-27T10:25:14.735Z,21.10
2023-04-27T10:27:42.996Z,21.28
2023-04-27T10:30:11.287Z,21.44
2023-04-27T10:32:39.183Z,21.65
2023-04-27T10:35:07.898Z,21.89
2023-04-27T10:37:35.769Z,22.10
2023-04-27T10:40:06.818Z,22.21
2023-04-27T10:42:34.762Z,22.37
2023-04-27T10:45:02.729Z,22.53
2023-04-27T10:47:30.701Z,22.82
2023-04-27T10:49:59.460Z,23.13
2023-04-27T10:52:27.218Z,23.21
2023-04-27T10:54:55.110Z,23.17
2023-04-27T10:57:23.189Z,23.25
2023-04-27T10:59:51.177Z,23.50
2023-04-27T11:02:19.969Z,23.70
2023-04-27T11:04:48.096Z,23.75
2023-04-27T11:07:16.912Z,23.52
2023-04-27T11:09:44.952Z,23.43
2023-04-27T11:12:12.965Z,23.52
2023-04-27T11:14:41.611Z,23.83
2023-04-27T11:17:09.597Z,23.98
2023-04-27T11:19:37.545Z,23.91
2023-04-27T11:22:05.505Z,23.87
2023-04-27T11:24:33.757Z,23.91
2023-04-27T11:27:02.746Z,24.02
2023-04-27T11:29:31.848Z,24.20
2023-04-27T11:32:01.855Z,24.28
2023-04-27T11:34:34.606Z,24.23
2023-04-27T11:37:17.364Z,24.11
2023-04-27T11:39:46.162Z,23.95
2023-04-27T11:42:14.737Z,23.99
2023-04-27T11:44:42.933Z,24.15
2023-04-27T11:47:11.927Z,24.37
2023-04-27T11:49:39.823Z,24.38
2023-04-27T11:52:07.859Z,24.39
2023-04-27T11:54:36.063Z,24.43
2023-04-27T11:57:04.030Z,24.36
2023-04-27T11:59:32.192Z,24.12
2023-04-27T12:02:00.459Z,24.13
2023-04-27T12:04:28.679Z,24.22
2023-04-27T12:06:58.334Z,24.17
2023-04-27T12:09:26.194Z,24.13
2023-04-27T12:11:55.436Z,24.07
2023-04-27T12:14:23.438Z,24.36
2023-04-27T12:16:51.416Z,24.79
2023-04-27T12:19:19.546Z,25.17
2023-04-27T12:21:47.341Z,25.48
2023-04-27T12:24:15.747Z,25.62
2023-04-27T12:26:43.865Z,25.74
2023-04-27T12:29:11.983Z,25.81
2023-04-27T12:31:40.072Z,25.80
2023-04-27T12:34:08.154Z,25.79
2023-04-27T12:36:36.571Z,25.86
2023-04-27T12:39:05.151Z,25.87
2023-04-27T12:41:32.939Z,25.72
2023-04-27T12:44:01.381Z,25.37
2023-04-27T12:46:29.356Z,24.82
2023-04-27T12:48:58.276Z,24.24
2023-04-27T12:51:28.530Z,23.99
2023-04-27T12:53:58.232Z,23.85
2023-04-27T12:56:29.105Z,23.69
2023-04-27T12:58:56.911Z,23.55
2023-04-27T13:01:27.163Z,23.33
2023-04-27T13:03:55.383Z,23.00
2023-04-27T13:06:24.004Z,22.75
2023-04-27T13:08:52.336Z,22.39
2023-04-27T13:11:20.222Z,21.81
2023-04-27T13:13:48.859Z,21.14
2023-04-27T13:16:16.909Z,20.55
2023-04-27T13:18:48.693Z,20.34
2023-04-27T13:21:17.247Z,20.37
2023-04-27T13:23:45.033Z,20.38
2023-04-27T13:26:13.641Z,20.44
2023-04-27T13:28:41.422Z,20.56
2023-04-27T13:31:09.463Z,20.79
2023-04-27T13:33:39.129Z,20.97
2023-04-27T13:36:07.192Z,21.10
2023-04-27T13:38:35.696Z,21.34
2023-04-27T13:41:03.861Z,21.63
2023-04-27T13:43:31.765Z,21.83
2023-04-27T13:46:01.185Z,21.98
2023-04-27T13:48:29.412Z,22.16
2023-04-27T13:50:57.313Z,22.28
2023-04-27T13:53:26.782Z,22.36
2023-04-27T13:55:54.917Z,22.35
2023-04-27T13:58:24.457Z,22.02
2023-04-27T14:00:53.964Z,21.72
2023-04-27T14:03:23.365Z,21.46
2023-04-27T14:05:51.737Z,21.40
2023-04-27T14:08:19.418Z,21.23
2023-04-27T14:10:47.904Z,20.96
2023-04-27T14:13:15.854Z,20.79
2023-04-27T14:15:44.106Z,20.62
2023-04-27T14:18:12.163Z,20.34
2023-04-27T14:20:40.503Z,20.10
2023-04-27T14:23:08.742Z,19.94
2023-04-27T14:25:36.580Z,19.92
2023-04-27T14:28:04.736Z,19.99
2023-04-27T14:30:32.471Z,20.06
2023-04-27T14:33:00.443Z,20.14
2023-04-27T14:35:28.462Z,20.33
2023-04-27T14:38:02.465Z,20.63
2023-04-27T14:40:31.156Z,21.02
2023-04-27T14:42:59.008Z,21.30
2023-04-27T14:45:33.528Z,21.41
2023-04-27T14:48:07.954Z,21.53
2023-04-27T14:50:36.839Z,21.62
2023-04-27T14:53:04.730Z,21.52
2023-04-27T14:55:32.628Z,21.36
2023-04-27T14:58:00.658Z,21.41
2023-04-27T15:00:28.485Z,21.34
2023-04-27T15:02:56.912Z,21.34
2023-04-27T15:05:24.836Z,21.46
2023-04-27T15:07:52.673Z,21.49
2023-04-27T15:10:20.990Z,21.44
2023-04-27T15:12:49.047Z,21.40
2023-04-27T15:15:17.405Z,21.24
2023-04-27T15:17:45.422Z,21.08
2023-04-27T15:20:14.283Z,20.95
2023-04-27T15:22:42.213Z,20.78
2023-04-27T15:25:10.274Z,20.69
2023-04-27T15:27:38.923Z,20.48
2023-04-27T15:30:06.823Z,20.11
2023-04-27T15:32:34.588Z,19.77
2023-04-27T15:35:02.603Z,19.44
2023-04-27T15:37:30.792Z,19.29
2023-04-27T15:39:58.899Z,19.00
2023-04-27T15:42:26.689Z,18.66
2023-04-27T15:44:54.553Z,18.32
2023-04-27T15:47:22.756Z,17.99
2023-04-27T15:49:57.320Z,17.73
2023-04-27T15:52:27.267Z,17.59
2023-04-27T15:54:55.232Z,17.44
2023-04-27T15:57:22.967Z,17.30
2023-04-27T15:59:51.038Z,17.17
2023-04-27T16:02:19.620Z,17.12
2023-04-27T16:04:48.165Z,17.14
2023-04-27T16:07:16.023Z,17.31
2023-04-27T16:09:44.302Z,17.34
2023-04-27T16:12:12.461Z,17.27
2023-04-27T16:14:40.641Z,17.17
2023-04-27T16:17:09.067Z,17.00
2023-04-27T16:19:36.819Z,16.83
2023-04-27T16:22:04.778Z,16.68
2023-04-27T16:24:33.935Z,16.48
2023-04-27T16:27:01.852Z,16.29
2023-04-27T16:29:30.209Z,16.13
2023-04-27T16:31:58.161Z,15.97
2023-04-27T16:34:26.011Z,15.86
2023-04-27T16:36:53.818Z,15.80
2023-04-27T16:39:21.774Z,15.76
2023-04-27T16:41:50.102Z,15.72
2023-04-27T16:44:17.977Z,15.64
2023-04-27T16:46:47.756Z,15.53
2023-04-27T16:49:16.428Z,15.38
2023-04-27T16:51:44.545Z,15.25
2023-04-27T16:54:13.528Z,15.13
2023-04-27T16:56:41.247Z,14.99
2023-04-27T16:59:12.565Z,14.91
2023-04-27T17:01:41.042Z,14.82
2023-04-27T17:04:09.122Z,14.72
2023-04-27T17:06:37.618Z,14.62
2023-04-27T17:09:05.874Z,14.54
2023-04-27T17:11:33.712Z,14.46
2023-04-27T17:14:01.828Z,14.38
2023-04-27T17:16:29.803Z,14.29
2023-04-27T17:18:57.933Z,14.18
2023-04-27T17:21:25.766Z,14.11
2023-04-27T17:23:53.723Z,14.05
2023-04-27T17:26:22.017Z,13.98
2023-04-27T17:28:49.871Z,13.92
2023-04-27T17:31:18.776Z,13.85
2023-04-27T17:33:46.782Z,13.76
2023-04-27T17:36:15.223Z,13.67
2023-04-27T17:38:43.833Z,13.56
2023-04-27T17:41:11.622Z,13.47
2023-04-27T17:43:41.838Z,13.35
2023-04-27T17:46:10.098Z,13.24
2023-04-27T17:48:38.270Z,13.15
2023-04-27T17:51:06.366Z,13.07
2023-04-27T17:53:34.603Z,13.01
2023-04-27T17:56:03.018Z,12.94
2023-04-27T17:58:32.406Z,12.86
2023-04-27T18:01:00.389Z,12.79
2023-04-27T18:03:28.642Z,12.73
2023-04-27T18:05:56.745Z,12.66
2023-04-27T18:08:25.379Z,12.59
2023-04-27T18:10:53.146Z,12.52
2023-04-27T18:13:21.053Z,12.46
2023-04-27T18:15:49.927Z,12.38
2023-04-27T18:18:23.843Z,12.32
2023-04-27T18:20:53.950Z,12.26
2023-04-27T18:23:21.816Z,12.23
2023-04-27T18:25:49.845Z,12.18
2023-04-27T18:28:17.825Z,12.14
2023-04-27T18:30:45.669Z,12.11
2023-04-27T18:33:13.748Z,12.06
2023-04-27T18:35:41.633Z,12.02
2023-04-27T18:38:09.604Z,11.99
2023-04-27T18:40:37.631Z,11.97
2023-04-27T18:43:05.513Z,11.92
2023-04-27T18:45:34.337Z,11.90
2023-04-27T18:48:02.368Z,11.88
2023-04-27T18:50:30.584Z,11.86
2023-04-27T18:52:58.812Z,11.84
2023-04-27T18:55:26.940Z,11.82
2023-04-27T18:57:55.281Z,11.79
2023-04-27T19:00:23.158Z,11.79
2023-04-27T19:02:52.439Z,11.75
2023-04-27T19:05:20.541Z,11.72
2023-04-27T19:07:48.576Z,11.70
2023-04-27T19:10:16.434Z,11.69
2023-04-27T19:12:44.359Z,11.68
2023-04-27T19:15:12.286Z,11.66
2023-04-27T19:17:40.420Z,11.63
2023-04-27T19:20:08.387Z,11.63
2023-04-27T19:22:37.705Z,11.60
2023-04-27T19:25:05.582Z,11.58
2023-04-27T19:27:33.623Z,11.56
2023-04-27T19:30:02.812Z,11.53
2023-04-27T19:32:31.115Z,11.51
2023-04-27T19:34:59.040Z,11.49
2023-04-27T19:37:27.040Z,11.50
2023-04-27T19:39:55.806Z,11.47
2023-04-27T19:42:25.058Z,11.49
2023-04-27T19:44:52.969Z,11.48
2023-04-27T19:47:20.798Z,11.47
2023-04-27T19:49:48.705Z,11.48
2023-04-27T19:52:16.780Z,11.46
2023-04-27T19:54:44.592Z,11.44
2023-04-27T19:57:12.472Z,11.43
2023-04-27T19:59:40.559Z,11.42
2023-04-27T20:02:09.309Z,11.41
2023-04-27T20:04:38.022Z,11.40
2023-04-27T20:07:06.126Z,11.39
2023-04-27T20:09:34.102Z,11.39
2023-04-27T20:12:02.836Z,11.39
2023-04-27T20:14:33.845Z,11.38
2023-04-27T20:17:02.647Z,11.37
2023-04-27T20:19:30.332Z,11.37
2023-04-27T20:21:58.117Z,11.37
2023-04-27T20:24:27.711Z,11.36
2023-04-27T20:26:55.430Z,11.35
2023-04-27T20:29:23.462Z,11.33
2023-04-27T20:31:51.775Z,11.29
2023-04-27T20:34:19.656Z,11.27
2023-04-27T20:36:48.105Z,11.23
2023-04-27T20:39:16.190Z,11.18
2023-04-27T20:41:44.430Z,11.14
2023-04-27T20:44:12.675Z,11.11
2023-04-27T20:46:40.959Z,11.10
2023-04-27T20:49:08.748Z,11.10
2023-04-27T20:51:36.764Z,11.10
2023-04-27T20:54:05.246Z,11.10
2023-04-27T20:56:33.198Z,11.10
2023-04-27T20:59:00.980Z,11.08
2023-04-27T21:01:29.151Z,11.09
2023-04-27T21:03:56.937Z,11.07
2023-04-27T21:06:24.860Z,11.05
2023-04-27T21:08:53.033Z,11.04
2023-04-27T21:11:21.361Z,11.03
2023-04-27T21:13:49.526Z,11.02
2023-04-27T21:16:17.261Z,11.02
2023-04-27T21:18:45.284Z,11.01
2023-04-27T21:21:13.109Z,10.97
2023-04-27T21:23:40.964Z,10.97
2023-04-27T21:26:09.197Z,10.93
2023-04-27T21:28:37.294Z,10.90
2023-04-27T21:31:06.712Z,10.88
2023-04-27T21:33:34.502Z,10.85
2023-04-27T21:36:03.950Z,10.82
2023-04-27T21:38:32.047Z,10.78
2023-04-27T21:40:59.729Z,10.71
2023-04-27T21:43:27.614Z,10.63
2023-04-27T21:45:55.325Z,10.55
2023-04-27T21:48:23.126Z,10.49
2023-04-27T21:50:51.117Z,10.45
2023-04-27T21:53:19.220Z,10.45
2023-04-27T21:55:46.880Z,10.45
2023-04-27T21:58:14.595Z,10.46
2023-04-27T22:00:42.301Z,10.46
2023-04-27T22:03:10.518Z,10.46
2023-04-27T22:05:38.358Z,10.48
2023-04-27T22:08:06.068Z,10.49
2023-04-27T22:10:33.804Z,10.49
2023-04-27T22:13:08.139Z,10.49
2023-04-27T22:15:45.633Z,10.49
2023-04-27T22:18:14.582Z,10.50
2023-04-27T22:20:42.614Z,10.49
2023-04-27T22:23:11.000Z,10.51
2023-04-27T22:25:38.670Z,10.51
2023-04-27T22:28:06.628Z,10.52
2023-04-27T22:30:34.729Z,10.53
2023-04-27T22:33:02.461Z,10.53
2023-04-27T22:35:30.361Z,10.53
2023-04-27T22:37:58.050Z,10.54
2023-04-27T22:40:26.036Z,10.53
2023-04-27T22:42:53.859Z,10.52
2023-04-27T22:45:21.501Z,10.51
2023-04-27T22:47:49.579Z,10.50
2023-04-27T22:50:17.622Z,10.49
2023-04-27T22:52:45.669Z,10.48
2023-04-27T22:55:13.399Z,10.47
2023-04-27T22:57:41.112Z,10.48
2023-04-27T23:00:09.139Z,10.48
2023-04-27T23:02:36.882Z,10.49
2023-04-27T23:05:05.429Z,10.50
2023-04-27T23:07:33.353Z,10.49
2023-04-27T23:10:03.261Z,10.48
2023-04-27T23:12:32.193Z,10.47
2023-04-27T23:14:59.817Z,10.46
2023-04-27T23:17:31.194Z,10.45
2023-04-27T23:19:58.970Z,10.44
2023-04-27T23:22:26.645Z,10.41
2023-04-27T23:24:54.254Z,10.39
2023-04-27T23:27:22.655Z,10.37
2023-04-27T23:29:50.633Z,10.36
2023-04-27T23:32:18.534Z,10.36
2023-04-27T23:34:46.126Z,10.34
2023-04-27T23:37:13.786Z,10.34
2023-04-27T23:39:41.417Z,10.34
2023-04-27T23:42:09.631Z,10.34
2023-04-27T23:44:37.486Z,10.33
2023-04-27T23:47:05.030Z,10.34
2023-04-27T23:49:32.579Z,10.34
2023-04-27T23:52:00.214Z,10.34
2023-04-27T23:54:27.825Z,10.33
2023-04-27T23:56:55.602Z,10.33
2023-04-27T23:59:23.235Z,10.34
